FW0770 Weather Reports


Display with metric or nautical units.
time (UTC)temp
F
wind
direction
speed
MPH
gust
MPH
rain 1hr
in
rain 24hr
in
rain mn
in
humidity
%
barometer
mb
20180525221506 79 174 0.0 1.0 0.04 0.05 0.04 78 1011.7
20180525221006 79 198 1.0 3.0 0.04 0.05 0.04 77 1011.8
20180525220506 80 186 0.0 0.0 0.04 0.05 0.04 75 1011.8
20180525220006 80 186 1.0 3.0 0.04 0.05 0.04 74 1011.9
20180525215506 79 187 1.0 2.0 0.04 0.05 0.04 74 1012.0
20180525215006 78 201 2.0 5.0 0.04 0.05 0.04 75 1012.1
20180525214506 77 225 2.0 5.0 0.04 0.05 0.04 77 1012.1
20180525214007 76 240 2.0 5.0 0.04 0.05 0.04 78 1012.1
20180525213506 76 216 3.0 5.0 0.04 0.05 0.04 78 1012.2
20180525213006 76 202 4.0 8.0 0.04 0.05 0.04 76 1012.3
20180525212506 77 221 5.0 10.0 0.04 0.05 0.04 74 1012.5
20180525212006 80 192 7.0 12.0 0.04 0.05 0.04 70 1012.8
20180525211506 82 224 7.0 16.0 0.00 0.01 0.00 61 1012.6
20180525211006 83 253 6.0 16.0 0.00 0.01 0.00 60 1012.7
20180525210506 84 219 7.0 15.0 0.00 0.01 0.00 59 1012.6
20180525210006 85 207 8.0 21.0 0.00 0.01 0.00 60 1012.5
20180525205506 86 200 3.0 18.0 0.00 0.01 0.00 64 1012.3
20180525205006 86 136 0.0 0.0 0.00 0.01 0.00 62 1012.1
20180525204507 87 136 0.0 5.0 0.00 0.01 0.00 58 1012.2
20180525204007 88 169 3.0 6.0 0.00 0.01 0.00 56 1012.1
20180525203506 89 223 3.0 6.0 0.00 0.01 0.00 54 1012.2
20180525203006 90 223 5.0 7.0 0.00 0.02 0.00 53 1012.2
20180525202506 90 192 0.0 5.0 0.00 0.03 0.00 52 1012.0
20180525202006 91 174 2.0 5.0 0.00 0.03 0.00 50 1012.0
20180525201506 93 295 0.0 3.0 0.00 0.03 0.00 48 1012.1
20180525201006 94 244 2.0 5.0 0.00 0.03 0.00 46 1012.2
20180525200506 93 156 2.0 5.0 0.00 0.03 0.00 50 1012.3
20180525200006 92 207 5.0 8.0 0.00 0.03 0.00 51 1012.4
20180525195506 92 227 5.0 9.0 0.00 0.03 0.00 50 1012.7
20180525195006 93 171 3.0 7.0 0.00 0.03 0.00 48 1012.7
20180525194506 94 196 7.0 10.0 0.00 0.03 0.00 45 1012.8
20180525194006 95 186 3.0 8.0 0.00 0.03 0.00 46 1012.8
20180525193506 95 326 2.0 6.0 0.00 0.03 0.00 47 1012.9
20180525193007 95 229 5.0 10.0 0.00 0.03 0.00 47 1013.1
20180525192511 95 248 3.0 10.0 0.00 0.03 0.00 48 1013.1
20180525192006 94 239 3.0 10.0 0.00 0.03 0.00 49 1013.2
20180525191506 93 294 3.0 8.0 0.00 0.03 0.00 52 1013.1
20180525191006 91 215 5.0 12.0 0.00 0.03 0.00 52 1013.2
20180525190506 91 180 3.0 8.0 0.00 0.03 0.00 53 1013.2
20180525190006 92 170 4.0 8.0 0.00 0.03 0.00 50 1013.2
20180525185506 93 190 5.0 10.0 0.00 0.03 0.00 50 1013.3
20180525185006 93 227 5.0 10.0 0.00 0.03 0.00 51 1013.4
20180525184506 91 188 5.0 9.0 0.00 0.03 0.00 50 1013.4
20180525184006 91 141 3.0 6.0 0.00 0.03 0.00 56 1013.5
20180525183506 90 134 1.0 8.0 0.00 0.03 0.00 55 1013.6
20180525183007 90 179 5.0 9.0 0.00 0.03 0.00 54 1013.6
20180525182507 90 194 5.0 9.0 0.00 0.03 0.00 53 1013.7
20180525182006 91 156 7.0 10.0 0.00 0.03 0.00 52 1013.8
20180525181506 90 222 6.0 9.0 0.00 0.03 0.00 53 1013.8
20180525181007 89 274 2.0 6.0 0.00 0.03 0.00 56 1013.9
20180525180506 90 156 4.0 7.0 0.00 0.03 0.00 53 1014.0
20180525180006 91 214 4.0 9.0 0.00 0.03 0.00 51 1014.2
20180525175506 91 183 7.0 10.0 0.00 0.03 0.00 52 1014.2
20180525175006 92 193 5.0 9.0 0.00 0.03 0.00 50 1014.2
20180525174506 91 212 2.0 8.0 0.00 0.03 0.00 52 1014.3
20180525174006 90 189 5.0 9.0 0.00 0.03 0.00 54 1014.3
20180525173506 91 128 3.0 8.0 0.00 0.03 0.00 51 1014.3
20180525173006 91 177 5.0 10.0 0.00 0.03 0.00 52 1014.5
20180525172506 90 185 6.0 13.0 0.00 0.03 0.00 53 1014.5
20180525172006 89 196 3.0 12.0 0.00 0.03 0.00 53 1014.5
20180525171506 90 171 5.0 10.0 0.00 0.03 0.00 52 1014.6
20180525171006 91 163 1.0 9.0 0.00 0.03 0.00 52 1014.6
20180525170506 91 194 5.0 7.0 0.00 0.03 0.00 52 1014.8
20180525170007 91 179 6.0 10.0 0.00 0.03 0.00 54 1014.8
20180525165506 90 190 3.0 12.0 0.00 0.03 0.00 54 1014.9
20180525165006 89 250 6.0 9.0 0.00 0.03 0.00 54 1014.9
20180525164506 89 163 4.0 12.0 0.00 0.03 0.00 54 1015.0
20180525164006 89 112 2.0 8.0 0.00 0.03 0.00 51 1015.0
20180525163506 90 179 5.0 9.0 0.00 0.03 0.00 53 1015.1
20180525163007 89 220 3.0 9.0 0.00 0.03 0.00 52 1015.1
20180525162510 89 183 3.0 6.0 0.00 0.03 0.00 53 1015.2
20180525162006 90 175 5.0 8.0 0.00 0.03 0.00 52 1015.3
20180525161506 90 195 6.0 9.0 0.00 0.03 0.00 52 1015.4
20180525161006 89 168 2.0 6.0 0.00 0.03 0.00 54 1015.4
20180525160506 89 177 6.0 12.0 0.00 0.03 0.00 52 1015.4
20180525160006 90 153 5.0 8.0 0.00 0.03 0.00 53 1015.4
20180525155506 90 160 5.0 9.0 0.00 0.03 0.00 54 1015.5
20180525155006 89 223 5.0 9.0 0.00 0.03 0.00 53 1015.4
20180525154506 89 195 6.0 12.0 0.00 0.03 0.00 54 1015.5
20180525154006 89 196 4.0 8.0 0.00 0.03 0.00 54 1015.5
20180525153506 89 204 5.0 8.0 0.00 0.03 0.00 53 1015.5
20180525153008 88 168 3.0 7.0 0.00 0.03 0.00 54 1015.5
20180525152512 88 181 6.0 12.0 0.00 0.03 0.00 55 1015.5
20180525152006 88 190 4.0 10.0 0.00 0.03 0.00 54 1015.5
20180525151506 88 186 5.0 9.0 0.00 0.03 0.00 56 1015.5
20180525151006 87 190 5.0 12.0 0.00 0.03 0.00 56 1015.6
20180525150507 87 183 5.0 9.0 0.00 0.03 0.00 56 1015.6
20180525150006 87 188 7.0 13.0 0.00 0.03 0.00 56 1015.6
20180525145506 87 179 5.0 10.0 0.00 0.03 0.00 56 1015.6
20180525145006 86 250 3.0 12.0 0.00 0.03 0.00 57 1015.6
20180525144506 86 158 5.0 9.0 0.00 0.03 0.00 58 1015.6
20180525144006 86 175 6.0 10.0 0.00 0.03 0.00 58 1015.7
20180525143506 85 200 5.0 8.0 0.00 0.03 0.00 60 1015.7
20180525143006 85 163 6.0 10.0 0.00 0.03 0.00 60 1015.8
20180525142506 85 190 3.0 8.0 0.00 0.03 0.00 60 1015.9
20180525142006 85 191 6.0 10.0 0.00 0.03 0.00 59 1015.9
20180525141506 84 215 8.0 13.0 0.00 0.03 0.00 59 1016.0
20180525141006 84 223 5.0 13.0 0.00 0.03 0.00 60 1016.0
20180525140506 84 164 5.0 10.0 0.00 0.03 0.00 60 1016.3
20180525140007 84 193 4.0 8.0 0.00 0.03 0.00 61 1016.4
20180525135506 83 211 5.0 7.0 0.00 0.03 0.00 61 1016.5
20180525135007 83 170 2.0 9.0 0.00 0.03 0.00 63 1016.6
20180525134506 82 182 6.0 10.0 0.00 0.03 0.00 63 1016.6
20180525134006 83 161 5.0 9.0 0.00 0.03 0.00 62 1016.7
20180525133507 83 182 5.0 10.0 0.00 0.03 0.00 61 1016.7
20180525133007 84 218 4.0 8.0 0.00 0.03 0.00 61 1016.7
20180525132506 83 200 5.0 6.0 0.00 0.03 0.00 60 1016.8
20180525132006 83 205 2.0 3.0 0.00 0.03 0.00 62 1016.8
20180525131507 83 199 2.0 6.0 0.00 0.03 0.00 63 1016.7
20180525131007 83 174 1.0 5.0 0.00 0.03 0.00 62 1016.7
20180525130507 83 192 2.0 3.0 0.00 0.03 0.00 64 1016.7
20180525130006 82 167 0.0 2.0 0.00 0.03 0.00 66 1016.7
20180525125506 81 66 0.0 0.0 0.00 0.03 0.00 67 1016.8
20180525125007 81 66 0.0 0.0 0.00 0.03 0.00 67 1016.8
20180525124507 80 66 0.0 0.0 0.00 0.03 0.00 69 1016.8
20180525124006 80 66 0.0 0.0 0.00 0.03 0.00 70 1016.8
20180525123507 79 66 0.0 0.0 0.00 0.03 0.00 70 1016.8
20180525123007 78 66 0.0 0.0 0.00 0.03 0.00 72 1016.8
20180525122508 77 66 0.0 0.0 0.00 0.03 0.00 73 1016.8
20180525122006 77 66 0.0 0.0 0.00 0.03 0.00 74 1016.8
20180525121507 76 66 0.0 0.0 0.00 0.03 0.00 74 1016.8
20180525121006 75 66 0.0 0.0 0.00 0.03 0.00 75 1016.7
20180525120506 75 66 0.0 1.0 0.00 0.03 0.00 75 1016.9
20180525120007 74 12 0.0 1.0 0.00 0.03 0.00 76 1016.9
20180525115507 74 0 0.0 0.0 0.00 0.03 0.01 76 1016.9
20180525115007 73 0 0.0 0.0 0.00 0.03 0.01 77 1016.9
20180525114506 73 0 0.0 0.0 0.00 0.03 0.01 78 1016.9